Sunday, October 22, 2017, 8:29 PM EDT
Back to Local

KOXC, Oxford, Waterbury-oxford Airport

Location: Oxford, CT, United States Lat: 41.483
Local Time: 8:29 PM EDT ( 0:29 GMT) Lon: -73.133
Time Zone: US/Eastern Elev: 725 ft

Show me the last for .
Show Coded

Time T Td Feel RH Dir Speed Gust Alt SLP Vis Weather Sky Remarks
2017-10-22 19:51 58 51 - 77 130° 5 - 30.39 30.43 10 CLR 6-hr Min Temp (8pm): 57.0°F
6-hr Max Temp (8pm): 75.9°F
2017-10-22 17:51 64 47 - 53 180° 6 - 30.38 30.42 10 CLR None
2017-10-22 16:51 70 46 - 42 170° 7 - 30.38 30.41 10 CLR None
2017-10-22 15:51 72 43 - 35 160° 9 - 30.38 30.41 10 CLR None
2017-10-22 14:51 75 43 - 31 170° 9 - 30.38 30.41 10 CLR None
2017-10-22 13:51 75 42 - 30 210° 8 - 30.39 30.42 10 CLR 6-hr Min Temp (2pm): 45.0°F
6-hr Max Temp (2pm): 75.9°F
2017-10-22 12:51 74 45 - 35 Variable 7 - 30.40 30.44 10 CLR None
2017-10-22 11:51 72 45 - 38 Variable 5 - 30.41 30.44 10 CLR None
2017-10-22 10:51 70 48 - 45 - Calm - 30.43 30.46 10 CLR None
2017-10-22 09:51 63 51 - 65 - Calm - 30.43 30.47 10 CLR None
2017-10-22 08:51 54 46 - 74 - Calm - 30.43 30.47 10 CLR None
2017-10-22 07:51 45 43 - 92 - Calm - 30.41 30.45 10 CLR 6-hr Min Temp (8am): 44.1°F
6-hr Max Temp (8am): 51.1°F
2017-10-22 06:51 47 41 46 79 10° 3 - 30.39 30.43 10 CLR None
2017-10-22 05:51 46 43 - 88 - Calm - 30.38 30.42 10 CLR None
2017-10-22 04:51 47 44 - 89 - Calm - 30.37 30.40 10 CLR None
2017-10-22 03:51 46 43 - 88 - Calm - 30.36 30.40 10 CLR None
2017-10-22 02:51 50 44 - 79 - Calm - 30.36 30.39 10 CLR None
2017-10-22 01:51 50 43 - 76 - Calm - 30.36 30.39 10 CLR 6-hr Min Temp (2am): 46.9°F
6-hr Max Temp (2am): 61.0°F
2017-10-22 00:51 47 44 - 89 - Calm - 30.37 30.40 10 CLR 24-hr Min Temp (1am): 39.9°F
24-hr Max Temp (1am): 77.0°F
2017-10-21 23:51 54 44 - 69 - Calm - 30.36 30.39 10 CLR None
2017-10-21 22:51 54 45 - 71 - Calm - 30.36 30.40 10 CLR None
2017-10-21 21:51 56 46 - 69 - Calm - 30.36 30.40 10 CLR None
2017-10-21 20:51 56 48 - 74 - Calm - 30.36 30.40 10 CLR None

Support USWX by starting your Amazon purchase here.